Time;durP1;ratioP1;P1;durP2;ratioP2;P2;SDS_P1;SDS_P2;PMS_P1;PMS_P2;Temp;Humidity;BMP_temperature;BMP_pressure;BME280_temperature;BME280_humidity;BME280_pressure;Samples;Min_cycle;Max_cycle;Signal;HPM_P1;HPM_P2
2022/01/14 00:01:44;;;;;;;;;;;;;;;21.40;41.27;103662.34;7291622;19;152472;-52
2022/01/14 00:04:10;;;;;;;;;;;;;;;21.38;41.52;103657.00;7281071;19;151827;-50
2022/01/14 00:06:40;;;;;;;;;;;;;;;21.36;41.75;103659.19;7282518;19;152473;-50
2022/01/14 00:09:09;;;;;;;;;;;;;;;21.35;41.47;103646.22;7281939;19;153236;-49
2022/01/14 00:11:41;;;;;;;;;;;;;;;21.33;41.68;103642.81;7285129;19;151906;-50
2022/01/14 00:14:20;;;;;;;;;;;;;;;21.32;41.67;103640.25;7281426;19;153244;-50
2022/01/14 00:16:51;;;;;;;;;;;;;;;21.29;41.89;103633.16;7282995;19;153190;-50
2022/01/14 00:19:18;;;;;;;;;;;;;;;21.28;41.73;103628.63;7284379;19;151884;-50
2022/01/14 00:21:45;;;;;;;;;;;;;;;21.26;41.90;103626.06;7284863;19;153360;-50
2022/01/14 00:32:25;;;;;;;;;;;;;;;21.17;42.28;103613.50;7284370;19;152219;-50
2022/01/14 00:34:52;;;;;;;;;;;;;;;21.15;42.37;103612.06;7281196;19;152600;-50
2022/01/14 00:37:19;;;;;;;;;;;;;;;21.13;42.29;103608.63;7281462;19;153394;-50
2022/01/14 00:39:47;;;;;;;;;;;;;;;21.10;42.00;103609.94;7282134;19;151960;-50
2022/01/14 00:42:14;;;;;;;;;;;;;;;21.07;42.29;103603.97;7284670;19;152517;-50
2022/01/14 00:44:41;;;;;;;;;;;;;;;21.07;42.39;103601.16;7283077;19;154020;-50
2022/01/14 00:47:08;;;;;;;;;;;;;;;21.03;42.94;103605.56;7290902;19;152338;-49
2022/01/14 00:49:34;;;;;;;;;;;;;;;21.02;42.83;103601.91;7282244;19;152679;-50
2022/01/14 00:52:02;;;;;;;;;;;;;;;21.00;43.20;103600.41;7282537;19;151692;-49
2022/01/14 00:54:28;;;;;;;;;;;;;;;20.99;43.16;103601.50;7281650;19;154064;-49
2022/01/14 00:59:37;;;;;;;;;;;;;;;20.94;43.21;103602.25;7283712;19;152101;-50
2022/01/14 01:02:04;;;;;;;;;;;;;;;20.92;43.07;103596.03;7283849;19;153517;-50
2022/01/14 01:04:35;;;;;;;;;;;;;;;20.90;42.96;103592.63;7278432;19;153761;-50
2022/01/14 01:07:03;;;;;;;;;;;;;;;20.88;43.40;103588.34;7278917;19;152034;-50
2022/01/14 01:09:31;;;;;;;;;;;;;;;20.86;43.09;103595.06;7290193;19;152589;-50
2022/01/14 01:12:27;;;;;;;;;;;;;;;20.83;43.47;103595.56;7283939;19;152605;-49
2022/01/14 01:15:05;;;;;;;;;;;;;;;20.79;43.06;103593.50;7278842;19;153303;-55
2022/01/14 01:17:32;;;;;;;;;;;;;;;20.79;43.29;103594.34;7282212;19;153369;-50
2022/01/14 01:20:00;;;;;;;;;;;;;;;20.74;43.09;103594.25;7282991;19;151960;-50
2022/01/14 01:22:27;;;;;;;;;;;;;;;20.74;43.48;103591.44;7282140;19;152630;-49
2022/01/14 01:24:53;;;;;;;;;;;;;;;20.73;43.04;103597.28;7279850;19;154842;-49
2022/01/14 01:27:31;;;;;;;;;;;;;;;20.70;43.37;103597.78;7281023;19;151846;-49
2022/01/14 01:30:16;;;;;;;;;;;;;;;20.68;43.32;103600.81;7282954;19;151771;-50
2022/01/14 01:32:46;;;;;;;;;;;;;;;20.63;43.51;103597.91;7289102;19;152220;-49
2022/01/14 01:35:14;;;;;;;;;;;;;;;20.61;43.15;103600.09;7278784;19;151878;-50
2022/01/14 01:37:41;;;;;;;;;;;;;;;20.57;43.46;103600.84;7279585;19;153925;-49
2022/01/14 01:40:08;;;;;;;;;;;;;;;20.52;43.29;103595.09;7281947;19;151595;-50
2022/01/14 01:42:35;;;;;;;;;;;;;;;20.51;43.16;103597.06;7280622;19;152676;-49
2022/01/14 01:45:09;;;;;;;;;;;;;;;20.49;43.42;103604.84;7280642;19;153146;-49
2022/01/14 01:47:38;;;;;;;;;;;;;;;20.42;42.94;103606.94;7281476;19;151835;-49
2022/01/14 01:50:18;;;;;;;;;;;;;;;20.41;42.91;103605.22;7281403;19;152463;-49
2022/01/14 01:52:54;;;;;;;;;;;;;;;20.34;43.02;103601.69;7288031;19;154004;-50
2022/01/14 01:55:22;;;;;;;;;;;;;;;20.33;43.34;103603.63;7278790;19;154097;-50
2022/01/14 01:57:52;;;;;;;;;;;;;;;20.29;43.39;103607.13;7279586;19;152212;-49
2022/01/14 02:00:23;;;;;;;;;;;;;;;20.24;43.43;103601.38;7280511;19;152223;-50
2022/01/14 02:02:50;;;;;;;;;;;;;;;20.21;43.48;103608.34;7281319;19;153316;-49
2022/01/14 02:05:17;;;;;;;;;;;;;;;20.21;43.41;103597.13;7275541;19;154044;-49
2022/01/14 02:07:44;;;;;;;;;;;;;;;20.16;43.84;103602.59;7277312;19;152350;-49
2022/01/14 02:10:11;;;;;;;;;;;;;;;20.15;43.87;103611.25;7280027;19;152673;-49
2022/01/14 02:12:47;;;;;;;;;;;;;;;20.11;43.77;103604.41;7280496;19;154272;-49
2022/01/14 02:15:27;;;;;;;;;;;;;;;20.11;43.83;103607.22;7286342;19;152031;-49
2022/01/14 02:23:16;;;;;;;;;;;;;;;19.99;43.88;103605.22;7281042;19;153524;-49
2022/01/14 02:25:45;;;;;;;;;;;;;;;19.96;44.06;103605.72;7280983;19;153549;-50
2022/01/14 02:28:13;;;;;;;;;;;;;;;19.93;44.27;103603.41;7280733;19;151915;-50
2022/01/14 02:30:43;;;;;;;;;;;;;;;19.95;43.91;103603.16;7280857;19;152834;-51
2022/01/14 02:33:14;;;;;;;;;;;;;;;19.89;44.22;103602.19;7279990;19;152788;-50
2022/01/14 02:35:42;;;;;;;;;;;;;;;19.89;44.14;103598.50;7278462;19;151679;-49
2022/01/14 02:38:10;;;;;;;;;;;;;;;19.85;44.26;103597.28;7288831;19;152557;-50
2022/01/14 02:40:38;;;;;;;;;;;;;;;19.84;44.32;103592.75;7287739;19;152358;-50
2022/01/14 02:43:12;;;;;;;;;;;;;;;19.82;44.35;103587.38;7287636;19;153198;-50
2022/01/14 02:45:40;;;;;;;;;;;;;;;19.79;44.22;103585.06;7286365;19;154249;-50
2022/01/14 02:48:07;;;;;;;;;;;;;;;19.77;44.26;103580.78;7286181;19;152411;-50
2022/01/14 02:50:43;;;;;;;;;;;;;;;19.72;44.70;103584.28;7287228;19;153250;-50
2022/01/14 02:56:00;;;;;;;;;;;;;;;19.68;44.45;103588.66;7285465;19;151693;-50
2022/01/14 02:58:32;;;;;;;;;;;;;;;19.69;44.40;103586.72;7287579;19;152982;-50
2022/01/14 03:00:59;;;;;;;;;;;;;;;19.65;44.93;103591.97;7294530;19;153734;-49
2022/01/14 03:03:27;;;;;;;;;;;;;;;19.60;45.22;103593.75;7286896;19;153227;-50
2022/01/14 03:05:54;;;;;;;;;;;;;;;19.56;45.16;103596.19;7283880;19;153920;-49
2022/01/14 03:08:21;;;;;;;;;;;;;;;19.53;45.23;103597.50;7282425;19;152392;-50
2022/01/14 03:10:52;;;;;;;;;;;;;;;19.55;45.13;103597.28;7286826;19;153115;-49
2022/01/14 03:13:19;;;;;;;;;;;;;;;19.52;45.15;103590.22;7284748;19;153968;-49
2022/01/14 03:15:46;;;;;;;;;;;;;;;19.52;45.27;103595.81;7283824;19;152231;-49
2022/01/14 03:18:17;;;;;;;;;;;;;;;19.50;45.17;103586.78;7287235;19;152701;-50
2022/01/14 03:20:48;;;;;;;;;;;;;;;19.49;45.38;103590.66;7285009;19;153938;-49
2022/01/14 03:23:17;;;;;;;;;;;;;;;19.47;45.53;103586.41;7294240;19;152160;-50
2022/01/14 03:25:48;;;;;;;;;;;;;;;19.42;45.44;103587.06;7285195;19;154670;-50
2022/01/14 03:28:15;;;;;;;;;;;;;;;19.42;45.27;103587.06;7284229;19;151731;-50
2022/01/14 03:30:44;;;;;;;;;;;;;;;19.41;45.17;103582.56;7285884;19;153541;-50
2022/01/14 03:33:15;;;;;;;;;;;;;;;19.36;45.39;103587.16;7283648;19;153537;-50
2022/01/14 03:35:41;;;;;;;;;;;;;;;19.38;45.41;103576.56;7281589;19;152142;-49
2022/01/14 03:38:08;;;;;;;;;;;;;;;19.33;45.35;103584.84;7286428;19;152953;-49
2022/01/14 03:40:35;;;;;;;;;;;;;;;19.33;45.22;103563.25;7279816;19;153914;-49
2022/01/14 03:43:03;;;;;;;;;;;;;;;19.29;45.51;103566.78;7292501;19;151913;-49
2022/01/14 03:45:30;;;;;;;;;;;;;;;19.26;45.25;103559.69;7283523;19;153166;-49
2022/01/14 03:47:57;;;;;;;;;;;;;;;19.25;45.41;103565.53;7286949;19;151738;-49
2022/01/14 03:50:25;;;;;;;;;;;;;;;19.24;45.54;103564.69;7283082;19;153191;-49
2022/01/14 03:52:51;;;;;;;;;;;;;;;19.21;45.33;103565.16;7284520;19;153862;-49
2022/01/14 03:55:18;;;;;;;;;;;;;;;19.20;45.56;103560.66;7283995;19;151624;-50
2022/01/14 03:57:45;;;;;;;;;;;;;;;19.17;45.36;103561.09;7286249;19;153131;-48
2022/01/14 04:00:12;;;;;;;;;;;;;;;19.17;45.31;103558.28;7283812;19;152897;-49
2022/01/14 04:02:39;;;;;;;;;;;;;;;19.14;45.33;103549.50;7285823;19;152023;-49
2022/01/14 04:05:06;;;;;;;;;;;;;;;19.13;45.34;103542.19;7291282;19;152722;-49
2022/01/14 04:07:33;;;;;;;;;;;;;;;19.11;45.48;103539.63;7281407;19;151772;-49
2022/01/14 04:10:00;;;;;;;;;;;;;;;19.08;45.46;103538.16;7281013;19;152068;-53
2022/01/14 04:12:47;;;;;;;;;;;;;;;19.06;45.59;103539.47;7284195;19;153163;-50
2022/01/14 04:18:01;;;;;;;;;;;;;;;19.00;45.68;103535.66;7285617;19;153741;-49
2022/01/14 04:20:28;;;;;;;;;;;;;;;19.02;45.64;103527.91;7282182;19;153241;-50
2022/01/14 04:22:55;;;;;;;;;;;;;;;19.00;45.24;103524.47;7284675;19;152277;-49
2022/01/14 04:25:21;;;;;;;;;;;;;;;18.97;45.15;103516.53;7282817;19;152590;-49
2022/01/14 04:27:48;;;;;;;;;;;;;;;18.97;45.37;103518.47;7290130;19;154090;-49
2022/01/14 04:30:15;;;;;;;;;;;;;;;18.93;45.65;103517.25;7284056;19;153520;-50
2022/01/14 04:32:41;;;;;;;;;;;;;;;18.92;45.51;103505.19;7284721;19;153661;-49
2022/01/14 04:35:08;;;;;;;;;;;;;;;18.90;45.66;103504.53;7283193;19;151804;-50
2022/01/14 04:37:35;;;;;;;;;;;;;;;18.89;45.60;103510.41;7284845;19;153361;-49
2022/01/14 04:40:03;;;;;;;;;;;;;;;18.89;45.55;103502.84;7282457;19;152747;-49
2022/01/14 04:42:30;;;;;;;;;;;;;;;18.94;45.87;103504.94;7284286;19;152216;-49
2022/01/14 04:44:57;;;;;;;;;;;;;;;18.97;45.86;103510.06;7283595;19;153327;-49
2022/01/14 04:50:10;;;;;;;;;;;;;;;19.06;46.17;103494.66;7291602;19;152188;-50
2022/01/14 04:52:36;;;;;;;;;;;;;;;19.07;46.20;103486.03;7280694;19;154264;-50
2022/01/14 04:55:03;;;;;;;;;;;;;;;19.13;46.65;103488.94;7282495;19;151734;-50
2022/01/14 04:57:30;;;;;;;;;;;;;;;19.17;46.90;103485.41;7284137;19;153006;-49
2022/01/14 04:59:57;;;;;;;;;;;;;;;19.22;47.12;103479.09;7282893;19;153756;-49
2022/01/14 05:02:24;;;;;;;;;;;;;;;19.28;47.35;103480.97;7280559;19;151571;-50
2022/01/14 05:04:52;;;;;;;;;;;;;;;19.34;47.17;103486.50;7280839;19;153154;-50
2022/01/14 05:07:24;;;;;;;;;;;;;;;19.40;47.07;103479.03;7281633;19;154311;-50
2022/01/14 05:10:08;;;;;;;;;;;;;;;19.45;47.35;103476.41;7277739;19;152254;-49
2022/01/14 05:12:36;;;;;;;;;;;;;;;19.51;46.92;103473.53;7289593;19;153665;-50
2022/01/14 05:15:03;;;;;;;;;;;;;;;19.57;46.87;103482.94;7282123;19;151605;-50
2022/01/14 05:17:30;;;;;;;;;;;;;;;19.64;46.92;103489.28;7282930;19;153344;-50
2022/01/14 05:19:58;;;;;;;;;;;;;;;19.71;46.68;103489.19;7281625;19;152613;-49
2022/01/14 05:22:27;;;;;;;;;;;;;;;19.78;46.49;103485.16;7283302;19;151834;-50
2022/01/14 05:24:54;;;;;;;;;;;;;;;19.83;46.32;103478.81;7282675;19;153145;-49
2022/01/14 05:27:21;;;;;;;;;;;;;;;19.89;45.97;103480.66;7279287;19;153756;-49
2022/01/14 05:29:48;;;;;;;;;;;;;;;19.95;45.73;103480.53;7280650;19;152090;-50
2022/01/14 05:32:15;;;;;;;;;;;;;;;20.02;45.60;103486.03;7283710;19;152624;-50
2022/01/14 05:34:43;;;;;;;;;;;;;;;20.09;45.42;103494.31;7288734;19;153453;-50
2022/01/14 05:37:11;;;;;;;;;;;;;;;20.13;45.10;103495.53;7283587;19;153034;-49
2022/01/14 05:39:38;;;;;;;;;;;;;;;20.18;45.13;103498.47;7281588;19;153155;-49
2022/01/14 05:42:06;;;;;;;;;;;;;;;20.23;45.09;103488.22;7283223;19;151815;-49
2022/01/14 05:44:33;;;;;;;;;;;;;;;20.29;44.88;103486.41;7283937;19;153559;-50
2022/01/14 05:47:00;;;;;;;;;;;;;;;20.34;44.68;103495.84;7280858;19;153564;-50
2022/01/14 05:49:28;;;;;;;;;;;;;;;20.37;44.52;103495.34;7281847;19;151861;-50
2022/01/14 05:51:55;;;;;;;;;;;;;;;20.43;44.63;103490.72;7281554;19;152732;-52
2022/01/14 05:54:22;;;;;;;;;;;;;;;20.48;45.19;103488.03;7288652;19;153400;-50
2022/01/14 05:56:49;;;;;;;;;;;;;;;20.53;44.78;103485.31;7279181;19;153271;-50
2022/01/14 05:59:16;;;;;;;;;;;;;;;20.58;44.56;103471.38;7278629;19;154185;-50
2022/01/14 06:01:43;;;;;;;;;;;;;;;20.63;44.33;103476.25;7281691;19;151631;-50
2022/01/14 06:04:10;;;;;;;;;;;;;;;20.67;44.21;103472.69;7280624;19;152228;-50
2022/01/14 06:06:37;;;;;;;;;;;;;;;20.71;44.31;103476.75;7278289;19;153296;-50
2022/01/14 06:09:04;;;;;;;;;;;;;;;20.75;43.95;103477.94;7280625;19;151923;-50
2022/01/14 06:11:31;;;;;;;;;;;;;;;20.80;44.39;103477.19;7275701;19;152724;-50
2022/01/14 06:13:57;;;;;;;;;;;;;;;20.84;44.25;103476.47;7286252;19;153308;-50
2022/01/14 06:16:24;;;;;;;;;;;;;;;20.89;43.77;103470.09;7294741;19;151834;-50
2022/01/14 06:18:51;;;;;;;;;;;;;;;20.93;44.03;103474.09;7286720;19;152875;-50
2022/01/14 06:21:18;;;;;;;;;;;;;;;20.97;43.94;103475.31;7287865;19;152088;-50
2022/01/14 06:23:44;;;;;;;;;;;;;;;21.02;44.14;103480.19;7287959;19;152590;-50
2022/01/14 06:26:20;;;;;;;;;;;;;;;21.07;43.80;103480.28;7286685;19;154562;-49
2022/01/14 06:28:47;;;;;;;;;;;;;;;21.09;43.61;103484.53;7287885;19;151978;-50
2022/01/14 06:31:14;;;;;;;;;;;;;;;21.14;43.63;103489.44;7288772;19;152730;-50
2022/01/14 06:33:41;;;;;;;;;;;;;;;21.18;43.57;103490.66;7284774;19;153548;-55
2022/01/14 06:36:08;;;;;;;;;;;;;;;21.20;43.71;103486.50;7286327;19;152053;-51
2022/01/14 06:38:35;;;;;;;;;;;;;;;21.24;43.39;103484.88;7293305;19;152504;-50
2022/01/14 06:41:02;;;;;;;;;;;;;;;21.28;43.37;103485.22;7287181;19;152362;-50
2022/01/14 06:43:29;;;;;;;;;;;;;;;21.32;43.17;103482.75;7285998;19;152959;-50
2022/01/14 06:45:57;;;;;;;;;;;;;;;21.36;43.18;103479.19;7286724;19;154021;-50
2022/01/14 06:48:25;;;;;;;;;;;;;;;21.40;43.33;103485.16;7287327;19;151925;-50
2022/01/14 06:50:52;;;;;;;;;;;;;;;21.42;43.29;103486.63;7287822;19;152584;-50
2022/01/14 06:53:25;;;;;;;;;;;;;;;21.46;43.08;103486.97;7287040;19;154686;-50
2022/01/14 06:55:51;;;;;;;;;;;;;;;21.50;43.22;103488.16;7285803;19;152118;-50
2022/01/14 06:58:18;;;;;;;;;;;;;;;21.51;43.07;103482.28;7287290;19;152607;-50
2022/01/14 07:00:45;;;;;;;;;;;;;;;21.55;42.67;103485.44;7293154;19;153090;-50
2022/01/14 07:03:12;;;;;;;;;;;;;;;21.59;42.51;103483.81;7284076;19;153303;-50
2022/01/14 07:05:40;;;;;;;;;;;;;;;21.61;42.80;103482.47;7283893;19;152623;-50
2022/01/14 07:08:07;;;;;;;;;;;;;;;21.65;42.81;103486.50;7286397;19;151498;-50
2022/01/14 07:10:36;;;;;;;;;;;;;;;21.68;42.63;103482.28;7283934;19;153512;-50
2022/01/14 07:13:04;;;;;;;;;;;;;;;21.70;42.57;103482.91;7283136;19;153948;-50
2022/01/14 07:15:31;;;;;;;;;;;;;;;21.72;42.63;103478.72;7286043;19;151842;-51
2022/01/14 07:17:58;;;;;;;;;;;;;;;21.76;42.23;103473.44;7285511;19;152660;-50
2022/01/14 07:20:25;;;;;;;;;;;;;;;21.80;42.45;103479.41;7285737;19;153656;-50
2022/01/14 07:22:51;;;;;;;;;;;;;;;21.83;42.57;103476.94;7292515;19;151953;-50
2022/01/14 07:25:18;;;;;;;;;;;;;;;21.87;42.50;103475.31;7282772;19;154969;-51
2022/01/14 07:27:45;;;;;;;;;;;;;;;21.84;42.06;103473.03;7285796;19;151610;-51
2022/01/14 07:30:15;;;;;;;;;;;;;;;21.83;41.51;103479.75;7286271;19;152557;-51
2022/01/14 07:32:42;;;;;;;;;;;;;;;21.81;40.58;103478.28;7285073;19;153404;-51
2022/01/14 07:35:09;;;;;;;;;;;;;;;21.79;40.42;103480.53;7286326;19;151984;-51
2022/01/14 07:37:36;;;;;;;;;;;;;;;21.77;39.98;103494.84;7284184;19;152629;-51
2022/01/14 07:40:03;;;;;;;;;;;;;;;21.77;39.32;103492.03;7283060;19;154270;-51
2022/01/14 07:42:30;;;;;;;;;;;;;;;21.78;39.49;103488.13;7285971;19;152232;-51
2022/01/14 07:44:57;;;;;;;;;;;;;;;21.77;38.86;103496.81;7291975;19;152618;-51
2022/01/14 07:47:23;;;;;;;;;;;;;;;21.77;39.09;103492.03;7285115;19;151838;-51
2022/01/14 07:49:50;;;;;;;;;;;;;;;21.77;39.03;103496.81;7285580;19;152035;-51
2022/01/14 07:52:17;;;;;;;;;;;;;;;21.77;38.37;103502.44;7285201;19;153282;-51
2022/01/14 07:54:44;;;;;;;;;;;;;;;21.77;38.28;103503.28;7286111;19;151697;-51
2022/01/14 07:57:11;;;;;;;;;;;;;;;21.80;38.77;103502.78;7282166;19;151969;-50
2022/01/14 07:59:38;;;;;;;;;;;;;;;21.84;38.63;103506.81;7283620;19;152629;-51
2022/01/14 08:02:06;;;;;;;;;;;;;;;21.88;38.39;103504.31;7285803;19;151852;-51
2022/01/14 08:04:35;;;;;;;;;;;;;;;21.93;38.91;103508.13;7292134;19;152794;-50
2022/01/14 08:07:11;;;;;;;;;;;;;;;22.00;39.44;103505.97;7281846;19;151813;-50
2022/01/14 08:09:39;;;;;;;;;;;;;;;21.74;37.27;103507.47;7283136;19;152937;-51
2022/01/14 08:12:06;;;;;;;;;;;;;;;21.78;37.63;103496.56;7281069;19;153953;-51
2022/01/14 08:14:33;;;;;;;;;;;;;;;21.82;37.51;103500.56;7280299;19;152070;-51
2022/01/14 08:17:00;;;;;;;;;;;;;;;21.86;37.40;103495.25;7283280;19;152872;-52
2022/01/14 08:19:32;;;;;;;;;;;;;;;21.89;37.83;103497.59;7280645;19;152201;-51
2022/01/14 08:22:04;;;;;;;;;;;;;;;21.87;38.05;103492.22;7284673;19;151550;-51
2022/01/14 08:24:32;;;;;;;;;;;;;;;21.86;37.94;103492.44;7283593;19;152604;-51
2022/01/14 08:26:59;;;;;;;;;;;;;;;21.82;37.90;103488.44;7291178;19;152846;-51
2022/01/14 08:29:28;;;;;;;;;;;;;;;21.79;38.08;103486.16;7284355;19;153306;-52
2022/01/14 08:31:55;;;;;;;;;;;;;;;21.78;37.67;103490.06;7281767;19;154102;-51
2022/01/14 08:34:23;;;;;;;;;;;;;;;21.74;37.81;103489.72;7280338;19;151908;-51
2022/01/14 08:36:49;;;;;;;;;;;;;;;21.82;37.95;103485.63;7282940;19;152578;-52
2022/01/14 08:39:17;;;;;;;;;;;;;;;21.85;37.92;103487.97;7283994;19;153772;-53
2022/01/14 08:41:44;;;;;;;;;;;;;;;21.87;37.64;103494.16;7284279;19;151970;-51
2022/01/14 08:44:13;;;;;;;;;;;;;;;21.86;37.76;103484.88;7283840;19;153804;-50
2022/01/14 08:46:49;;;;;;;;;;;;;;;21.85;37.91;103488.78;7282741;19;152225;-50
2022/01/14 08:49:16;;;;;;;;;;;;;;;21.86;38.22;103479.22;7289580;19;151624;-50
2022/01/14 08:51:43;;;;;;;;;;;;;;;21.87;38.21;103482.91;7281437;19;153092;-50
2022/01/14 08:54:09;;;;;;;;;;;;;;;21.88;38.19;103477.03;7283744;19;151875;-51
2022/01/14 08:56:37;;;;;;;;;;;;;;;21.89;38.50;103473.13;7282439;19;152622;-50
2022/01/14 08:59:04;;;;;;;;;;;;;;;21.92;38.50;103468.91;7283309;19;153759;-50
2022/01/14 09:01:31;;;;;;;;;;;;;;;21.94;38.14;103463.94;7283761;19;152285;-50
2022/01/14 09:03:58;;;;;;;;;;;;;;;21.96;38.59;103472.97;7283797;19;153046;-50
2022/01/14 09:06:25;;;;;;;;;;;;;;;21.98;38.18;103468.78;7278160;19;153542;-50
2022/01/14 09:08:52;;;;;;;;;;;;;;;22.01;38.71;103471.09;7283273;19;151858;-50
2022/01/14 09:11:19;;;;;;;;;;;;;;;22.03;38.72;103468.84;7286643;19;153334;-50
2022/01/14 09:13:45;;;;;;;;;;;;;;;22.05;38.22;103465.78;7278465;19;152155;-50
2022/01/14 09:16:12;;;;;;;;;;;;;;;22.08;38.77;103468.06;7280822;19;153207;-50
2022/01/14 09:18:39;;;;;;;;;;;;;;;22.09;38.75;103467.81;7281253;19;154102;-50
2022/01/14 09:21:06;;;;;;;;;;;;;;;22.11;38.84;103465.63;7283175;19;151709;-51
2022/01/14 09:23:34;;;;;;;;;;;;;;;22.15;38.86;103465.94;7282735;19;153322;-53
2022/01/14 09:26:00;;;;;;;;;;;;;;;22.18;38.70;103465.41;7280980;19;151748;-51
2022/01/14 09:28:28;;;;;;;;;;;;;;;22.18;38.55;103456.97;7283391;19;152274;-50
2022/01/14 09:30:55;;;;;;;;;;;;;;;22.20;38.54;103460.41;7281476;19;152485;-50
2022/01/14 09:33:27;;;;;;;;;;;;;;;22.21;38.91;103464.06;7289608;19;153390;-50
2022/01/14 09:35:54;;;;;;;;;;;;;;;22.22;38.75;103457.31;7280544;19;152652;-51
2022/01/14 09:38:22;;;;;;;;;;;;;;;22.22;38.86;103462.94;7278174;19;152317;-50
2022/01/14 09:40:49;;;;;;;;;;;;;;;22.22;38.86;103462.94;7282310;19;151495;-50
2022/01/14 09:43:19;;;;;;;;;;;;;;;22.21;38.52;103459.28;7282653;19;153494;-50
2022/01/14 09:46:00;;;;;;;;;;;;;;;22.21;38.63;103459.28;7281512;19;154239;-50
2022/01/14 09:48:27;;;;;;;;;;;;;;;22.17;38.43;103456.13;7285950;19;152928;-51
2022/01/14 09:50:55;;;;;;;;;;;;;;;22.18;38.62;103462.59;7285458;19;155019;-51
2022/01/14 09:53:28;;;;;;;;;;;;;;;22.16;38.53;103456.41;7287317;19;154644;-51
2022/01/14 09:55:55;;;;;;;;;;;;;;;22.14;38.95;103450.16;7297090;19;151842;-50
2022/01/14 09:58:26;;;;;;;;;;;;;;;22.12;38.84;103441.13;7286032;19;153939;-51
2022/01/14 10:01:09;;;;;;;;;;;;;;;22.11;38.59;103453.50;7288292;19;152366;-51
2022/01/14 10:03:46;;;;;;;;;;;;;;;22.08;38.84;103460.47;7288880;19;152641;-50
2022/01/14 10:06:12;;;;;;;;;;;;;;;22.06;38.87;103454.28;7286000;19;154333;-50
2022/01/14 10:08:39;;;;;;;;;;;;;;;22.06;38.72;103459.06;7288487;19;151920;-50
2022/01/14 10:11:09;;;;;;;;;;;;;;;22.07;39.20;103457.94;7284850;19;152676;-50
2022/01/14 10:13:37;;;;;;;;;;;;;;;22.02;38.87;103467.16;7282370;19;153992;-50
2022/01/14 10:16:06;;;;;;;;;;;;;;;22.00;39.16;103460.06;7292697;19;152371;-51
2022/01/14 10:18:33;;;;;;;;;;;;;;;22.00;39.03;103468.50;7277139;19;154128;-51
2022/01/14 10:21:01;;;;;;;;;;;;;;;21.98;39.12;103470.75;7282615;19;152555;-52
2022/01/14 10:24:02;;;;;;;;;;;;;;;22.00;39.00;103474.16;7285318;19;154125;-50
2022/01/14 10:26:45;;;;;;;;;;;;;;;22.04;38.90;103481.81;7281656;19;153826;-51
2022/01/14 10:29:16;;;;;;;;;;;;;;;22.07;39.08;103475.69;7282132;19;152205;-50
2022/01/14 10:31:43;;;;;;;;;;;;;;;22.09;38.83;103478.22;7283902;19;152899;-50
2022/01/14 10:34:15;;;;;;;;;;;;;;;22.11;38.89;103464.75;7285002;19;154361;-55
2022/01/14 10:36:42;;;;;;;;;;;;;;;22.14;38.73;103462.28;7285832;19;152141;-51
2022/01/14 10:39:25;;;;;;;;;;;;;;;22.16;38.67;103460.06;7290983;19;153375;-51
2022/01/14 10:41:55;;;;;;;;;;;;;;;22.21;38.67;103461.25;7285859;19;152880;-51
2022/01/14 10:44:28;;;;;;;;;;;;;;;22.22;38.78;103455.34;7285635;19;151857;-50
2022/01/14 10:47:15;;;;;;;;;;;;;;;22.26;38.54;103462.16;7282388;19;153409;-51
2022/01/14 10:49:42;;;;;;;;;;;;;;;22.28;38.63;103451.50;7285404;19;151797;-50
2022/01/14 10:52:13;;;;;;;;;;;;;;;22.31;38.64;103448.16;7284633;19;152170;-50
2022/01/14 10:54:42;;;;;;;;;;;;;;;22.36;38.67;103450.19;7284800;19;153311;-50
2022/01/14 10:57:13;;;;;;;;;;;;;;;22.36;38.34;103448.22;7284293;19;151837;-51
2022/01/14 10:59:40;;;;;;;;;;;;;;;22.39;38.16;103436.47;7284676;19;153157;-50
2022/01/14 11:02:26;;;;;;;;;;;;;;;22.42;38.22;103424.66;7291737;19;153962;-50
2022/01/14 11:05:10;;;;;;;;;;;;;;;22.46;38.32;103419.34;7284284;19;153037;-50
2022/01/14 11:07:43;;;;;;;;;;;;;;;22.49;38.53;103413.19;7283542;19;153222;-50
2022/01/14 11:10:15;;;;;;;;;;;;;;;22.51;38.43;103417.47;7284922;19;151940;-50
2022/01/14 11:12:42;;;;;;;;;;;;;;;22.54;38.10;103411.28;7285316;19;153804;-50
2022/01/14 11:15:10;;;;;;;;;;;;;;;22.56;37.98;103409.06;7283230;19;154050;-50
2022/01/14 11:17:38;;;;;;;;;;;;;;;22.59;37.91;103405.72;7284151;19;151945;-50
2022/01/14 11:20:22;;;;;;;;;;;;;;;22.63;38.01;103394.75;7284419;19;153423;-50
2022/01/14 11:25:37;;;;;;;;;;;;;;;22.70;38.04;103386.16;7290959;19;151941;-50
2022/01/14 11:28:04;;;;;;;;;;;;;;;22.72;37.76;103386.72;7283345;19;154427;-50
2022/01/14 11:30:32;;;;;;;;;;;;;;;22.74;38.20;103382.53;7281395;19;152060;-50
2022/01/14 11:33:02;;;;;;;;;;;;;;;22.76;38.06;103371.84;7280781;19;153625;-51
2022/01/14 11:35:29;;;;;;;;;;;;;;;22.79;38.10;103370.47;7282376;19;154319;-51
2022/01/14 11:37:57;;;;;;;;;;;;;;;22.81;37.89;103365.41;7282849;19;151853;-50
2022/01/14 11:40:23;;;;;;;;;;;;;;;22.82;37.51;103367.97;7282264;19;153083;-50
2022/01/14 11:42:50;;;;;;;;;;;;;;;;;;7283094;19;153297;-50
2022/01/14 11:45:18;;;;;;;;;;;;;;;22.89;37.77;103368.63;7282479;19;159145;-50
2022/01/14 11:47:47;;;;;;;;;;;;;;;22.92;37.94;103364.41;7290542;19;153201;-50
2022/01/14 11:50:21;;;;;;;;;;;;;;;22.93;37.54;103366.97;7283826;19;151931;-50
2022/01/14 11:52:49;;;;;;;;;;;;;;;22.95;37.73;103356.25;7282728;19;153053;-50
2022/01/14 11:55:21;;;;;;;;;;;;;;;22.98;37.84;103357.72;7282312;19;154072;-53
2022/01/14 11:57:53;;;;;;;;;;;;;;;23.00;37.65;103344.19;7282811;19;152094;-54
2022/01/14 12:00:25;;;;;;;;;;;;;;;23.02;37.38;103339.13;7282232;19;152699;-51
2022/01/14 12:02:56;;;;;;;;;;;;;;;23.03;37.54;103332.41;7282347;19;154134;-51
2022/01/14 12:05:30;;;;;;;;;;;;;;;23.07;37.74;103338.34;7282686;19;152409;-50
2022/01/14 12:08:03;;;;;;;;;;;;;;;23.09;37.56;103330.44;7283514;19;153276;-50
2022/01/14 12:10:30;;;;;;;;;;;;;;;23.12;37.44;103332.75;7287283;19;152118;-50
2022/01/14 12:13:23;;;;;;;;;;;;;;;23.12;37.23;103327.97;7283975;19;153618;-50
2022/01/14 12:15:59;;;;;;;;;;;;;;;23.16;37.65;103331.94;7281351;19;152978;-50
2022/01/14 12:18:44;;;;;;;;;;;;;;;23.19;37.52;103324.91;7277684;19;151921;-50
2022/01/14 12:21:14;;;;;;;;;;;;;;;23.20;37.46;103321.81;7282968;19;153787;-51
2022/01/14 12:23:41;;;;;;;;;;;;;;;23.24;37.26;103333.41;7282431;19;153255;-50
2022/01/14 12:26:15;;;;;;;;;;;;;;;23.25;37.43;103332.31;7282972;19;152240;-50
2022/01/14 12:28:43;;;;;;;;;;;;;;;23.23;37.06;103331.69;7283039;19;153606;-52
2022/01/14 12:31:10;;;;;;;;;;;;;;;23.18;36.86;103321.22;7287935;19;153420;-51
2022/01/14 12:33:38;;;;;;;;;;;;;;;23.16;36.66;103325.44;7280294;19;152856;-51
2022/01/14 12:36:10;;;;;;;;;;;;;;;23.15;36.85;103321.78;7280539;19;153219;-51
2022/01/14 12:38:40;;;;;;;;;;;;;;;23.17;36.66;103315.88;7280353;19;151908;-51
2022/01/14 12:41:14;;;;;;;;;;;;;;;23.18;36.24;103314.72;7281577;19;152232;-51
2022/01/14 12:43:47;;;;;;;;;;;;;;;23.25;36.73;103316.22;7282131;19;153406;-50
2022/01/14 12:49:23;;;;;;;;;;;;;;;23.31;36.74;103306.66;7279757;19;152765;-50
2022/01/14 12:52:27;;;;;;;;;;;;;;;23.35;36.70;103301.31;7281411;19;154221;-51
2022/01/14 12:54:54;;;;;;;;;;;;;;;23.38;36.73;103295.16;7287721;19;151870;-51
2022/01/14 12:57:25;;;;;;;;;;;;;;;23.42;36.83;103299.13;7280854;19;153627;-50
2022/01/14 12:59:52;;;;;;;;;;;;;;;23.42;36.51;103287.84;7282243;19;151715;-50
2022/01/14 13:02:25;;;;;;;;;;;;;;;23.44;36.76;103280.84;7281618;19;153408;-50
2022/01/14 13:04:59;;;;;;;;;;;;;;;23.47;36.73;103279.47;7280094;19;154918;-50
2022/01/14 13:07:26;;;;;;;;;;;;;;;23.49;36.72;103269.59;7282331;19;152079;-50
2022/01/14 13:09:53;;;;;;;;;;;;;;;23.53;36.52;103269.06;7281049;19;153265;-51